sensor_id;sensor_type;location;lat;lon;timestamp;P1;durP1;ratioP1;P2;durP2;ratioP2
52674;SDS011;38569;52.722;6.440;2022-07-05T00:01:43;8.82;;;5.43;;
52674;SDS011;38569;52.722;6.440;2022-07-05T00:04:09;4.85;;;4.35;;
52674;SDS011;38569;52.722;6.440;2022-07-05T00:06:34;8.90;;;4.57;;
52674;SDS011;38569;52.722;6.440;2022-07-05T00:09:00;5.63;;;4.93;;
52674;SDS011;38569;52.722;6.440;2022-07-05T00:11:26;7.07;;;5.28;;
52674;SDS011;38569;52.722;6.440;2022-07-05T00:13:51;7.85;;;5.03;;
52674;SDS011;38569;52.722;6.440;2022-07-05T00:16:17;6.55;;;5.47;;
52674;SDS011;38569;52.722;6.440;2022-07-05T00:18:43;5.68;;;5.00;;
52674;SDS011;38569;52.722;6.440;2022-07-05T00:21:09;6.38;;;4.50;;
52674;SDS011;38569;52.722;6.440;2022-07-05T00:23:34;6.68;;;4.18;;
52674;SDS011;38569;52.722;6.440;2022-07-05T00:26:00;6.68;;;4.90;;
52674;SDS011;38569;52.722;6.440;2022-07-05T00:28:26;6.28;;;5.57;;
52674;SDS011;38569;52.722;6.440;2022-07-05T00:30:51;7.68;;;5.57;;
52674;SDS011;38569;52.722;6.440;2022-07-05T00:33:17;4.90;;;4.50;;
52674;SDS011;38569;52.722;6.440;2022-07-05T00:35:43;5.45;;;4.50;;
52674;SDS011;38569;52.722;6.440;2022-07-05T00:38:08;9.02;;;5.38;;
52674;SDS011;38569;52.722;6.440;2022-07-05T00:40:34;9.75;;;5.97;;
52674;SDS011;38569;52.722;6.440;2022-07-05T00:43:00;6.05;;;5.45;;
52674;SDS011;38569;52.722;6.440;2022-07-05T00:45:26;6.97;;;5.60;;
52674;SDS011;38569;52.722;6.440;2022-07-05T00:47:51;7.03;;;5.72;;
52674;SDS011;38569;52.722;6.440;2022-07-05T00:50:17;8.50;;;5.43;;
52674;SDS011;38569;52.722;6.440;2022-07-05T00:52:43;7.13;;;5.15;;
52674;SDS011;38569;52.722;6.440;2022-07-05T00:55:09;11.20;;;6.45;;
52674;SDS011;38569;52.722;6.440;2022-07-05T00:57:34;5.57;;;4.75;;
52674;SDS011;38569;52.722;6.440;2022-07-05T01:00:00;7.70;;;4.97;;
52674;SDS011;38569;52.722;6.440;2022-07-05T01:02:26;6.63;;;4.93;;
52674;SDS011;38569;52.722;6.440;2022-07-05T01:04:51;5.53;;;4.97;;
52674;SDS011;38569;52.722;6.440;2022-07-05T01:07:18;6.10;;;4.78;;
52674;SDS011;38569;52.722;6.440;2022-07-05T01:09:46;5.80;;;5.03;;
52674;SDS011;38569;52.722;6.440;2022-07-05T01:12:12;9.80;;;5.75;;
52674;SDS011;38569;52.722;6.440;2022-07-05T01:14:38;7.90;;;5.97;;
52674;SDS011;38569;52.722;6.440;2022-07-05T01:17:05;8.73;;;6.97;;
52674;SDS011;38569;52.722;6.440;2022-07-05T01:19:31;8.85;;;6.40;;
52674;SDS011;38569;52.722;6.440;2022-07-05T01:21:58;7.65;;;6.90;;
52674;SDS011;38569;52.722;6.440;2022-07-05T01:24:28;7.10;;;6.15;;
52674;SDS011;38569;52.722;6.440;2022-07-05T01:26:54;13.23;;;7.15;;
52674;SDS011;38569;52.722;6.440;2022-07-05T01:29:20;6.90;;;5.88;;
52674;SDS011;38569;52.722;6.440;2022-07-05T01:31:46;7.47;;;5.22;;
52674;SDS011;38569;52.722;6.440;2022-07-05T01:34:12;7.95;;;6.07;;
52674;SDS011;38569;52.722;6.440;2022-07-05T01:36:37;6.28;;;5.65;;
52674;SDS011;38569;52.722;6.440;2022-07-05T01:39:05;6.90;;;6.15;;
52674;SDS011;38569;52.722;6.440;2022-07-05T01:41:32;6.97;;;6.05;;
52674;SDS011;38569;52.722;6.440;2022-07-05T01:43:58;7.90;;;6.60;;
52674;SDS011;38569;52.722;6.440;2022-07-05T01:46:24;8.32;;;6.57;;
52674;SDS011;38569;52.722;6.440;2022-07-05T01:48:56;9.48;;;6.25;;
52674;SDS011;38569;52.722;6.440;2022-07-05T01:51:29;9.55;;;6.10;;
52674;SDS011;38569;52.722;6.440;2022-07-05T01:53:58;7.68;;;6.43;;
52674;SDS011;38569;52.722;6.440;2022-07-05T01:56:24;8.77;;;6.07;;
52674;SDS011;38569;52.722;6.440;2022-07-05T01:58:50;14.43;;;7.10;;
52674;SDS011;38569;52.722;6.440;2022-07-05T02:01:27;10.40;;;6.65;;
52674;SDS011;38569;52.722;6.440;2022-07-05T02:04:06;7.90;;;6.43;;
52674;SDS011;38569;52.722;6.440;2022-07-05T02:06:35;12.93;;;7.72;;
52674;SDS011;38569;52.722;6.440;2022-07-05T02:09:02;9.27;;;7.90;;
52674;SDS011;38569;52.722;6.440;2022-07-05T02:11:29;11.73;;;7.28;;
52674;SDS011;38569;52.722;6.440;2022-07-05T02:13:55;7.10;;;6.40;;
52674;SDS011;38569;52.722;6.440;2022-07-05T02:16:23;10.10;;;7.32;;
52674;SDS011;38569;52.722;6.440;2022-07-05T02:18:50;10.02;;;6.95;;
52674;SDS011;38569;52.722;6.440;2022-07-05T02:21:16;9.05;;;6.90;;
52674;SDS011;38569;52.722;6.440;2022-07-05T02:23:41;8.18;;;7.35;;
52674;SDS011;38569;52.722;6.440;2022-07-05T02:26:07;11.98;;;7.20;;
52674;SDS011;38569;52.722;6.440;2022-07-05T02:28:33;8.85;;;7.13;;
52674;SDS011;38569;52.722;6.440;2022-07-05T02:30:58;11.15;;;8.75;;
52674;SDS011;38569;52.722;6.440;2022-07-05T02:33:24;9.65;;;7.63;;
52674;SDS011;38569;52.722;6.440;2022-07-05T02:35:50;10.35;;;8.82;;
52674;SDS011;38569;52.722;6.440;2022-07-05T02:38:15;12.05;;;8.35;;
52674;SDS011;38569;52.722;6.440;2022-07-05T02:40:41;10.07;;;9.00;;
52674;SDS011;38569;52.722;6.440;2022-07-05T02:43:07;9.50;;;7.47;;
52674;SDS011;38569;52.722;6.440;2022-07-05T02:45:32;11.35;;;8.02;;
52674;SDS011;38569;52.722;6.440;2022-07-05T02:47:58;13.35;;;8.88;;
52674;SDS011;38569;52.722;6.440;2022-07-05T02:50:24;9.77;;;8.60;;
52674;SDS011;38569;52.722;6.440;2022-07-05T02:52:49;9.60;;;8.52;;
52674;SDS011;38569;52.722;6.440;2022-07-05T02:55:15;10.45;;;8.65;;
52674;SDS011;38569;52.722;6.440;2022-07-05T02:57:41;10.40;;;8.82;;
52674;SDS011;38569;52.722;6.440;2022-07-05T03:00:06;9.73;;;8.73;;
52674;SDS011;38569;52.722;6.440;2022-07-05T03:02:33;11.80;;;9.82;;
52674;SDS011;38569;52.722;6.440;2022-07-05T03:04:58;9.38;;;7.70;;
52674;SDS011;38569;52.722;6.440;2022-07-05T03:07:24;10.18;;;8.70;;
52674;SDS011;38569;52.722;6.440;2022-07-05T03:09:50;10.88;;;9.77;;
52674;SDS011;38569;52.722;6.440;2022-07-05T03:12:15;10.25;;;9.25;;
52674;SDS011;38569;52.722;6.440;2022-07-05T03:14:41;12.75;;;9.32;;
52674;SDS011;38569;52.722;6.440;2022-07-05T03:17:07;12.88;;;9.63;;
52674;SDS011;38569;52.722;6.440;2022-07-05T03:19:33;9.55;;;8.52;;
52674;SDS011;38569;52.722;6.440;2022-07-05T03:21:58;10.65;;;9.63;;
52674;SDS011;38569;52.722;6.440;2022-07-05T03:24:24;12.43;;;9.63;;
52674;SDS011;38569;52.722;6.440;2022-07-05T03:26:50;10.73;;;9.63;;
52674;SDS011;38569;52.722;6.440;2022-07-05T03:29:15;15.30;;;9.40;;
52674;SDS011;38569;52.722;6.440;2022-07-05T03:31:41;9.98;;;9.02;;
52674;SDS011;38569;52.722;6.440;2022-07-05T03:34:07;11.93;;;9.18;;
52674;SDS011;38569;52.722;6.440;2022-07-05T03:36:32;11.80;;;9.30;;
52674;SDS011;38569;52.722;6.440;2022-07-05T03:38:58;9.95;;;8.95;;
52674;SDS011;38569;52.722;6.440;2022-07-05T03:41:24;11.13;;;9.38;;
52674;SDS011;38569;52.722;6.440;2022-07-05T03:43:49;11.20;;;9.32;;
52674;SDS011;38569;52.722;6.440;2022-07-05T03:46:15;12.50;;;10.27;;
52674;SDS011;38569;52.722;6.440;2022-07-05T03:48:41;11.30;;;9.95;;
52674;SDS011;38569;52.722;6.440;2022-07-05T03:51:06;10.45;;;9.35;;
52674;SDS011;38569;52.722;6.440;2022-07-05T03:53:32;10.90;;;9.27;;
52674;SDS011;38569;52.722;6.440;2022-07-05T03:55:58;13.45;;;10.63;;
52674;SDS011;38569;52.722;6.440;2022-07-05T03:58:23;12.25;;;9.30;;
52674;SDS011;38569;52.722;6.440;2022-07-05T04:00:49;13.98;;;8.50;;
52674;SDS011;38569;52.722;6.440;2022-07-05T04:03:15;10.23;;;9.20;;
52674;SDS011;38569;52.722;6.440;2022-07-05T04:05:40;8.60;;;7.75;;
52674;SDS011;38569;52.722;6.440;2022-07-05T04:08:06;10.13;;;8.95;;
52674;SDS011;38569;52.722;6.440;2022-07-05T04:10:32;9.45;;;8.20;;
52674;SDS011;38569;52.722;6.440;2022-07-05T04:12:58;10.05;;;7.65;;
52674;SDS011;38569;52.722;6.440;2022-07-05T04:15:24;9.40;;;7.70;;
52674;SDS011;38569;52.722;6.440;2022-07-05T04:17:50;9.93;;;6.97;;
52674;SDS011;38569;52.722;6.440;2022-07-05T04:20:18;7.20;;;6.18;;
52674;SDS011;38569;52.722;6.440;2022-07-05T04:22:46;6.45;;;5.57;;
52674;SDS011;38569;52.722;6.440;2022-07-05T04:25:12;9.63;;;6.20;;
52674;SDS011;38569;52.722;6.440;2022-07-05T04:27:41;7.15;;;6.20;;
52674;SDS011;38569;52.722;6.440;2022-07-05T04:30:17;6.65;;;4.97;;
52674;SDS011;38569;52.722;6.440;2022-07-05T04:32:45;7.22;;;5.35;;
52674;SDS011;38569;52.722;6.440;2022-07-05T04:35:11;7.57;;;5.75;;
52674;SDS011;38569;52.722;6.440;2022-07-05T04:37:37;7.45;;;5.78;;
52674;SDS011;38569;52.722;6.440;2022-07-05T04:40:04;6.50;;;5.90;;
52674;SDS011;38569;52.722;6.440;2022-07-05T04:42:31;8.13;;;5.50;;
52674;SDS011;38569;52.722;6.440;2022-07-05T04:44:57;7.03;;;5.45;;
52674;SDS011;38569;52.722;6.440;2022-07-05T04:47:23;6.32;;;5.72;;
52674;SDS011;38569;52.722;6.440;2022-07-05T04:49:50;9.18;;;5.53;;
52674;SDS011;38569;52.722;6.440;2022-07-05T04:52:16;8.68;;;5.88;;
52674;SDS011;38569;52.722;6.440;2022-07-05T04:54:42;7.45;;;6.28;;
52674;SDS011;38569;52.722;6.440;2022-07-05T04:57:08;8.18;;;5.85;;
52674;SDS011;38569;52.722;6.440;2022-07-05T04:59:34;10.43;;;6.13;;
52674;SDS011;38569;52.722;6.440;2022-07-05T05:01:59;6.72;;;5.78;;
52674;SDS011;38569;52.722;6.440;2022-07-05T05:04:25;7.95;;;6.40;;
52674;SDS011;38569;52.722;6.440;2022-07-05T05:06:51;5.47;;;4.97;;
52674;SDS011;38569;52.722;6.440;2022-07-05T05:09:17;6.60;;;4.72;;
52674;SDS011;38569;52.722;6.440;2022-07-05T05:11:42;8.70;;;5.85;;
52674;SDS011;38569;52.722;6.440;2022-07-05T05:14:08;11.70;;;6.05;;
52674;SDS011;38569;52.722;6.440;2022-07-05T05:16:34;9.38;;;4.90;;
52674;SDS011;38569;52.722;6.440;2022-07-05T05:18:59;9.00;;;6.18;;
52674;SDS011;38569;52.722;6.440;2022-07-05T05:21:25;5.88;;;5.28;;
52674;SDS011;38569;52.722;6.440;2022-07-05T05:23:51;6.20;;;5.70;;
52674;SDS011;38569;52.722;6.440;2022-07-05T05:26:16;6.75;;;5.97;;
52674;SDS011;38569;52.722;6.440;2022-07-05T05:28:42;6.18;;;5.57;;
52674;SDS011;38569;52.722;6.440;2022-07-05T05:31:09;6.15;;;5.55;;
52674;SDS011;38569;52.722;6.440;2022-07-05T05:33:35;6.72;;;5.80;;
52674;SDS011;38569;52.722;6.440;2022-07-05T05:36:01;8.10;;;5.63;;
52674;SDS011;38569;52.722;6.440;2022-07-05T05:38:27;8.23;;;6.13;;
52674;SDS011;38569;52.722;6.440;2022-07-05T05:40:52;5.97;;;4.97;;
52674;SDS011;38569;52.722;6.440;2022-07-05T05:43:18;8.63;;;5.50;;
52674;SDS011;38569;52.722;6.440;2022-07-05T05:45:43;8.43;;;5.90;;
52674;SDS011;38569;52.722;6.440;2022-07-05T05:48:09;7.22;;;5.45;;
52674;SDS011;38569;52.722;6.440;2022-07-05T05:50:36;9.48;;;6.35;;
52674;SDS011;38569;52.722;6.440;2022-07-05T05:53:05;8.40;;;5.28;;
52674;SDS011;38569;52.722;6.440;2022-07-05T05:55:32;6.53;;;5.20;;
52674;SDS011;38569;52.722;6.440;2022-07-05T05:58:17;9.65;;;5.72;;
52674;SDS011;38569;52.722;6.440;2022-07-05T06:00:45;9.30;;;6.15;;
52674;SDS011;38569;52.722;6.440;2022-07-05T06:03:20;8.50;;;5.50;;
52674;SDS011;38569;52.722;6.440;2022-07-05T06:05:51;7.03;;;5.07;;
52674;SDS011;38569;52.722;6.440;2022-07-05T06:08:17;8.80;;;6.03;;
52674;SDS011;38569;52.722;6.440;2022-07-05T06:10:43;7.75;;;6.22;;
52674;SDS011;38569;52.722;6.440;2022-07-05T06:13:10;10.32;;;5.53;;
52674;SDS011;38569;52.722;6.440;2022-07-05T06:15:36;9.40;;;5.55;;
52674;SDS011;38569;52.722;6.440;2022-07-05T06:18:03;7.57;;;4.72;;
52674;SDS011;38569;52.722;6.440;2022-07-05T06:20:30;6.13;;;4.85;;
52674;SDS011;38569;52.722;6.440;2022-07-05T06:22:58;6.55;;;5.05;;
52674;SDS011;38569;52.722;6.440;2022-07-05T06:25:24;6.35;;;5.00;;
52674;SDS011;38569;52.722;6.440;2022-07-05T06:27:51;5.32;;;4.30;;
52674;SDS011;38569;52.722;6.440;2022-07-05T06:30:22;5.22;;;4.60;;
52674;SDS011;38569;52.722;6.440;2022-07-05T06:32:49;4.30;;;3.50;;
52674;SDS011;38569;52.722;6.440;2022-07-05T06:35:15;6.70;;;3.55;;
52674;SDS011;38569;52.722;6.440;2022-07-05T06:40:21;4.47;;;2.83;;
52674;SDS011;38569;52.722;6.440;2022-07-05T06:42:49;4.57;;;2.00;;
52674;SDS011;38569;52.722;6.440;2022-07-05T06:45:16;3.15;;;2.25;;
52674;SDS011;38569;52.722;6.440;2022-07-05T06:47:42;4.72;;;2.58;;
52674;SDS011;38569;52.722;6.440;2022-07-05T06:50:07;7.93;;;2.75;;
52674;SDS011;38569;52.722;6.440;2022-07-05T06:52:33;8.00;;;2.28;;
52674;SDS011;38569;52.722;6.440;2022-07-05T06:54:59;4.18;;;2.42;;
52674;SDS011;38569;52.722;6.440;2022-07-05T06:57:25;5.85;;;2.30;;
52674;SDS011;38569;52.722;6.440;2022-07-05T06:59:51;4.80;;;2.03;;
52674;SDS011;38569;52.722;6.440;2022-07-05T07:02:17;3.80;;;2.15;;
52674;SDS011;38569;52.722;6.440;2022-07-05T07:04:47;4.28;;;1.75;;
52674;SDS011;38569;52.722;6.440;2022-07-05T07:07:13;8.00;;;2.00;;
52674;SDS011;38569;52.722;6.440;2022-07-05T07:09:58;5.28;;;1.58;;
52674;SDS011;38569;52.722;6.440;2022-07-05T07:12:25;8.90;;;2.13;;
52674;SDS011;38569;52.722;6.440;2022-07-05T07:14:51;7.00;;;2.17;;
52674;SDS011;38569;52.722;6.440;2022-07-05T07:17:17;3.38;;;1.35;;
52674;SDS011;38569;52.722;6.440;2022-07-05T07:19:42;5.47;;;1.30;;
52674;SDS011;38569;52.722;6.440;2022-07-05T07:22:08;3.45;;;1.48;;
52674;SDS011;38569;52.722;6.440;2022-07-05T07:24:34;4.00;;;1.10;;
52674;SDS011;38569;52.722;6.440;2022-07-05T07:27:00;4.90;;;1.08;;
52674;SDS011;38569;52.722;6.440;2022-07-05T07:29:32;5.57;;;1.85;;
52674;SDS011;38569;52.722;6.440;2022-07-05T07:32:02;3.38;;;1.45;;
52674;SDS011;38569;52.722;6.440;2022-07-05T07:34:29;4.30;;;1.15;;
52674;SDS011;38569;52.722;6.440;2022-07-05T07:36:54;2.53;;;1.20;;
52674;SDS011;38569;52.722;6.440;2022-07-05T07:39:21;1.70;;;0.80;;
52674;SDS011;38569;52.722;6.440;2022-07-05T07:41:48;4.63;;;1.27;;
52674;SDS011;38569;52.722;6.440;2022-07-05T07:44:13;5.43;;;1.40;;
52674;SDS011;38569;52.722;6.440;2022-07-05T07:46:39;4.55;;;0.90;;
52674;SDS011;38569;52.722;6.440;2022-07-05T07:49:06;6.82;;;1.98;;
52674;SDS011;38569;52.722;6.440;2022-07-05T07:51:32;2.28;;;1.05;;
52674;SDS011;38569;52.722;6.440;2022-07-05T07:53:58;4.90;;;1.20;;
52674;SDS011;38569;52.722;6.440;2022-07-05T07:56:24;2.40;;;1.08;;
52674;SDS011;38569;52.722;6.440;2022-07-05T07:58:51;5.80;;;1.70;;
52674;SDS011;38569;52.722;6.440;2022-07-05T08:01:17;4.50;;;0.77;;
52674;SDS011;38569;52.722;6.440;2022-07-05T08:03:43;4.85;;;1.15;;
52674;SDS011;38569;52.722;6.440;2022-07-05T08:06:10;5.03;;;0.85;;
52674;SDS011;38569;52.722;6.440;2022-07-05T08:08:40;4.28;;;1.30;;
52674;SDS011;38569;52.722;6.440;2022-07-05T08:11:08;4.45;;;0.95;;
52674;SDS011;38569;52.722;6.440;2022-07-05T08:13:35;7.47;;;1.20;;
52674;SDS011;38569;52.722;6.440;2022-07-05T08:16:02;2.30;;;0.90;;
52674;SDS011;38569;52.722;6.440;2022-07-05T08:18:27;2.63;;;1.33;;
52674;SDS011;38569;52.722;6.440;2022-07-05T08:21:12;4.50;;;1.33;;
52674;SDS011;38569;52.722;6.440;2022-07-05T08:23:56;4.47;;;1.08;;
52674;SDS011;38569;52.722;6.440;2022-07-05T08:26:40;2.00;;;0.82;;
52674;SDS011;38569;52.722;6.440;2022-07-05T08:29:10;4.97;;;1.00;;
52674;SDS011;38569;52.722;6.440;2022-07-05T08:34:04;4.80;;;1.10;;
52674;SDS011;38569;52.722;6.440;2022-07-05T08:36:30;2.65;;;1.00;;
52674;SDS011;38569;52.722;6.440;2022-07-05T08:38:55;2.60;;;0.90;;
52674;SDS011;38569;52.722;6.440;2022-07-05T08:41:21;2.75;;;1.00;;
52674;SDS011;38569;52.722;6.440;2022-07-05T08:43:49;1.92;;;0.68;;
52674;SDS011;38569;52.722;6.440;2022-07-05T08:46:17;3.45;;;0.80;;
52674;SDS011;38569;52.722;6.440;2022-07-05T08:48:44;3.05;;;1.05;;
52674;SDS011;38569;52.722;6.440;2022-07-05T08:51:14;2.60;;;0.95;;
52674;SDS011;38569;52.722;6.440;2022-07-05T08:53:46;5.00;;;1.25;;
52674;SDS011;38569;52.722;6.440;2022-07-05T08:56:12;2.30;;;0.95;;
52674;SDS011;38569;52.722;6.440;2022-07-05T08:58:38;3.33;;;1.30;;
52674;SDS011;38569;52.722;6.440;2022-07-05T09:01:05;5.75;;;0.77;;
52674;SDS011;38569;52.722;6.440;2022-07-05T09:03:33;3.65;;;1.40;;
52674;SDS011;38569;52.722;6.440;2022-07-05T09:06:10;3.67;;;1.00;;
52674;SDS011;38569;52.722;6.440;2022-07-05T09:08:37;2.30;;;1.02;;
52674;SDS011;38569;52.722;6.440;2022-07-05T09:11:14;2.35;;;0.70;;
52674;SDS011;38569;52.722;6.440;2022-07-05T09:13:48;4.03;;;0.93;;
52674;SDS011;38569;52.722;6.440;2022-07-05T09:21:14;2.72;;;0.93;;
52674;SDS011;38569;52.722;6.440;2022-07-05T09:23:54;1.40;;;0.80;;
52674;SDS011;38569;52.722;6.440;2022-07-05T09:26:31;1.95;;;0.70;;
52674;SDS011;38569;52.722;6.440;2022-07-05T09:29:20;3.15;;;0.85;;
52674;SDS011;38569;52.722;6.440;2022-07-05T09:31:47;2.30;;;0.70;;
52674;SDS011;38569;52.722;6.440;2022-07-05T09:34:20;5.30;;;0.90;;
52674;SDS011;38569;52.722;6.440;2022-07-05T09:44:39;3.10;;;1.00;;
52674;SDS011;38569;52.722;6.440;2022-07-05T09:47:08;3.30;;;0.90;;
52674;SDS011;38569;52.722;6.440;2022-07-05T09:49:35;2.75;;;1.10;;
52674;SDS011;38569;52.722;6.440;2022-07-05T09:52:02;4.35;;;1.17;;
52674;SDS011;38569;52.722;6.440;2022-07-05T09:54:28;3.80;;;0.88;;
52674;SDS011;38569;52.722;6.440;2022-07-05T09:56:54;3.10;;;1.20;;
52674;SDS011;38569;52.722;6.440;2022-07-05T09:59:19;2.92;;;0.90;;
52674;SDS011;38569;52.722;6.440;2022-07-05T10:01:46;2.63;;;0.98;;
52674;SDS011;38569;52.722;6.440;2022-07-05T10:04:12;3.42;;;1.60;;
52674;SDS011;38569;52.722;6.440;2022-07-05T10:06:38;3.38;;;1.00;;
52674;SDS011;38569;52.722;6.440;2022-07-05T10:09:04;3.85;;;1.38;;
52674;SDS011;38569;52.722;6.440;2022-07-05T10:11:31;4.03;;;0.93;;
52674;SDS011;38569;52.722;6.440;2022-07-05T10:13:58;4.60;;;1.05;;
52674;SDS011;38569;52.722;6.440;2022-07-05T10:16:24;3.63;;;0.80;;
52674;SDS011;38569;52.722;6.440;2022-07-05T10:18:53;6.40;;;1.20;;
52674;SDS011;38569;52.722;6.440;2022-07-05T10:21:21;3.38;;;0.80;;
52674;SDS011;38569;52.722;6.440;2022-07-05T10:23:50;1.95;;;0.90;;
52674;SDS011;38569;52.722;6.440;2022-07-05T10:26:19;4.13;;;1.58;;
52674;SDS011;38569;52.722;6.440;2022-07-05T10:28:46;3.35;;;1.35;;
52674;SDS011;38569;52.722;6.440;2022-07-05T10:31:14;3.60;;;1.20;;
52674;SDS011;38569;52.722;6.440;2022-07-05T10:33:41;3.10;;;1.20;;
52674;SDS011;38569;52.722;6.440;2022-07-05T10:36:09;2.55;;;0.90;;
52674;SDS011;38569;52.722;6.440;2022-07-05T10:38:37;2.30;;;0.73;;
52674;SDS011;38569;52.722;6.440;2022-07-05T10:41:06;3.65;;;1.02;;
52674;SDS011;38569;52.722;6.440;2022-07-05T10:43:36;2.95;;;1.02;;
52674;SDS011;38569;52.722;6.440;2022-07-05T10:46:02;4.47;;;1.00;;
52674;SDS011;38569;52.722;6.440;2022-07-05T10:48:32;2.50;;;0.88;;
52674;SDS011;38569;52.722;6.440;2022-07-05T10:50:58;3.47;;;1.15;;
52674;SDS011;38569;52.722;6.440;2022-07-05T10:53:28;4.35;;;1.15;;
52674;SDS011;38569;52.722;6.440;2022-07-05T11:01:31;4.55;;;1.30;;
52674;SDS011;38569;52.722;6.440;2022-07-05T11:06:28;6.13;;;1.25;;
52674;SDS011;38569;52.722;6.440;2022-07-05T11:14:29;3.72;;;1.50;;
52674;SDS011;38569;52.722;6.440;2022-07-05T11:16:48;4.70;;;1.10;;
52674;SDS011;38569;52.722;6.440;2022-07-05T11:24:57;4.65;;;1.38;;
52674;SDS011;38569;52.722;6.440;2022-07-05T11:27:24;2.63;;;0.93;;
52674;SDS011;38569;52.722;6.440;2022-07-05T11:29:53;5.15;;;2.22;;
52674;SDS011;38569;52.722;6.440;2022-07-05T11:32:34;3.70;;;1.15;;
52674;SDS011;38569;52.722;6.440;2022-07-05T11:38:02;3.17;;;1.20;;
52674;SDS011;38569;52.722;6.440;2022-07-05T11:40:29;2.90;;;1.00;;
52674;SDS011;38569;52.722;6.440;2022-07-05T11:42:59;3.38;;;1.00;;
52674;SDS011;38569;52.722;6.440;2022-07-05T11:45:27;2.55;;;0.98;;
52674;SDS011;38569;52.722;6.440;2022-07-05T11:47:54;6.53;;;0.95;;
52674;SDS011;38569;52.722;6.440;2022-07-05T11:50:27;5.32;;;1.23;;
52674;SDS011;38569;52.722;6.440;2022-07-05T11:52:55;2.72;;;1.15;;
52674;SDS011;38569;52.722;6.440;2022-07-05T11:55:23;5.13;;;0.90;;
52674;SDS011;38569;52.722;6.440;2022-07-05T11:57:51;4.13;;;1.20;;
52674;SDS011;38569;52.722;6.440;2022-07-05T12:00:31;4.63;;;1.33;;
52674;SDS011;38569;52.722;6.440;2022-07-05T12:02:58;5.65;;;1.00;;
52674;SDS011;38569;52.722;6.440;2022-07-05T12:05:29;3.70;;;0.85;;
52674;SDS011;38569;52.722;6.440;2022-07-05T12:07:57;3.08;;;0.80;;
52674;SDS011;38569;52.722;6.440;2022-07-05T12:10:23;4.50;;;1.20;;
52674;SDS011;38569;52.722;6.440;2022-07-05T12:13:08;4.72;;;1.00;;
52674;SDS011;38569;52.722;6.440;2022-07-05T12:15:35;1.92;;;0.70;;
52674;SDS011;38569;52.722;6.440;2022-07-05T12:18:01;2.80;;;0.77;;
52674;SDS011;38569;52.722;6.440;2022-07-05T12:20:29;2.65;;;1.08;;
52674;SDS011;38569;52.722;6.440;2022-07-05T12:22:56;2.47;;;0.75;;
52674;SDS011;38569;52.722;6.440;2022-07-05T12:25:24;2.40;;;0.93;;
52674;SDS011;38569;52.722;6.440;2022-07-05T12:27:51;2.25;;;0.80;;
52674;SDS011;38569;52.722;6.440;2022-07-05T12:30:19;1.90;;;0.80;;
52674;SDS011;38569;52.722;6.440;2022-07-05T12:33:01;3.88;;;0.68;;
52674;SDS011;38569;52.722;6.440;2022-07-05T12:35:46;5.93;;;0.98;;
52674;SDS011;38569;52.722;6.440;2022-07-05T12:38:16;2.58;;;0.93;;
52674;SDS011;38569;52.722;6.440;2022-07-05T12:41:07;3.22;;;0.90;;
52674;SDS011;38569;52.722;6.440;2022-07-05T12:43:32;1.92;;;0.70;;
52674;SDS011;38569;52.722;6.440;2022-07-05T12:46:12;2.13;;;0.60;;
52674;SDS011;38569;52.722;6.440;2022-07-05T12:48:38;2.10;;;0.70;;
52674;SDS011;38569;52.722;6.440;2022-07-05T12:51:08;2.78;;;0.88;;
52674;SDS011;38569;52.722;6.440;2022-07-05T12:53:35;1.83;;;0.55;;
52674;SDS011;38569;52.722;6.440;2022-07-05T12:56:28;6.22;;;0.93;;
52674;SDS011;38569;52.722;6.440;2022-07-05T12:59:12;4.18;;;0.88;;
52674;SDS011;38569;52.722;6.440;2022-07-05T13:01:41;4.15;;;0.95;;
52674;SDS011;38569;52.722;6.440;2022-07-05T13:04:15;3.65;;;1.02;;
52674;SDS011;38569;52.722;6.440;2022-07-05T13:09:10;2.28;;;0.90;;
52674;SDS011;38569;52.722;6.440;2022-07-05T13:11:40;2.28;;;0.70;;
52674;SDS011;38569;52.722;6.440;2022-07-05T13:14:06;2.28;;;0.80;;
52674;SDS011;38569;52.722;6.440;2022-07-05T13:16:32;2.42;;;1.00;;
52674;SDS011;38569;52.722;6.440;2022-07-05T13:19:11;3.85;;;0.70;;
52674;SDS011;38569;52.722;6.440;2022-07-05T13:21:37;3.05;;;0.70;;
52674;SDS011;38569;52.722;6.440;2022-07-05T13:24:04;3.17;;;0.68;;
52674;SDS011;38569;52.722;6.440;2022-07-05T13:26:30;1.95;;;0.50;;
52674;SDS011;38569;52.722;6.440;2022-07-05T13:28:56;1.65;;;0.63;;
52674;SDS011;38569;52.722;6.440;2022-07-05T13:31:21;2.33;;;0.70;;
52674;SDS011;38569;52.722;6.440;2022-07-05T13:33:47;5.88;;;1.02;;
52674;SDS011;38569;52.722;6.440;2022-07-05T13:36:13;3.42;;;0.70;;
52674;SDS011;38569;52.722;6.440;2022-07-05T13:38:38;3.10;;;0.93;;
52674;SDS011;38569;52.722;6.440;2022-07-05T13:41:04;2.17;;;0.73;;
52674;SDS011;38569;52.722;6.440;2022-07-05T13:43:30;2.47;;;0.60;;
52674;SDS011;38569;52.722;6.440;2022-07-05T13:45:55;5.03;;;0.85;;
52674;SDS011;38569;52.722;6.440;2022-07-05T13:48:21;1.63;;;0.70;;
52674;SDS011;38569;52.722;6.440;2022-07-05T13:50:47;3.10;;;0.63;;
52674;SDS011;38569;52.722;6.440;2022-07-05T13:53:12;3.67;;;0.70;;
52674;SDS011;38569;52.722;6.440;2022-07-05T13:55:38;2.70;;;0.57;;
52674;SDS011;38569;52.722;6.440;2022-07-05T13:58:04;3.38;;;1.00;;
52674;SDS011;38569;52.722;6.440;2022-07-05T14:00:29;2.55;;;0.73;;
52674;SDS011;38569;52.722;6.440;2022-07-05T14:02:55;2.33;;;0.70;;
52674;SDS011;38569;52.722;6.440;2022-07-05T14:05:21;2.10;;;0.93;;
52674;SDS011;38569;52.722;6.440;2022-07-05T14:07:47;3.13;;;0.75;;
52674;SDS011;38569;52.722;6.440;2022-07-05T14:10:13;3.75;;;1.45;;
52674;SDS011;38569;52.722;6.440;2022-07-05T14:12:39;2.42;;;0.80;;
52674;SDS011;38569;52.722;6.440;2022-07-05T14:15:05;2.50;;;0.80;;
52674;SDS011;38569;52.722;6.440;2022-07-05T14:17:32;2.70;;;0.68;;
52674;SDS011;38569;52.722;6.440;2022-07-05T14:19:57;2.75;;;0.80;;
52674;SDS011;38569;52.722;6.440;2022-07-05T14:22:23;4.75;;;0.57;;
52674;SDS011;38569;52.722;6.440;2022-07-05T14:24:49;5.60;;;0.65;;
52674;SDS011;38569;52.722;6.440;2022-07-05T14:27:15;1.60;;;0.70;;
52674;SDS011;38569;52.722;6.440;2022-07-05T14:29:40;1.67;;;0.73;;
52674;SDS011;38569;52.722;6.440;2022-07-05T14:32:06;1.30;;;0.52;;
52674;SDS011;38569;52.722;6.440;2022-07-05T14:34:32;1.30;;;0.63;;
52674;SDS011;38569;52.722;6.440;2022-07-05T14:36:58;1.58;;;0.70;;
52674;SDS011;38569;52.722;6.440;2022-07-05T14:39:24;1.85;;;0.85;;
52674;SDS011;38569;52.722;6.440;2022-07-05T14:41:51;1.90;;;0.60;;
52674;SDS011;38569;52.722;6.440;2022-07-05T14:44:16;1.25;;;0.63;;
52674;SDS011;38569;52.722;6.440;2022-07-05T14:46:42;1.05;;;0.30;;
52674;SDS011;38569;52.722;6.440;2022-07-05T14:49:08;2.72;;;0.85;;
52674;SDS011;38569;52.722;6.440;2022-07-05T14:51:33;3.53;;;0.82;;
52674;SDS011;38569;52.722;6.440;2022-07-05T14:53:59;0.88;;;0.40;;
52674;SDS011;38569;52.722;6.440;2022-07-05T14:56:25;1.90;;;0.80;;
52674;SDS011;38569;52.722;6.440;2022-07-05T14:58:50;1.88;;;0.50;;
52674;SDS011;38569;52.722;6.440;2022-07-05T15:01:16;2.17;;;0.70;;
52674;SDS011;38569;52.722;6.440;2022-07-05T15:03:45;1.42;;;0.50;;
52674;SDS011;38569;52.722;6.440;2022-07-05T15:06:11;2.42;;;0.50;;
52674;SDS011;38569;52.722;6.440;2022-07-05T15:08:37;1.65;;;0.88;;
52674;SDS011;38569;52.722;6.440;2022-07-05T15:11:03;3.20;;;1.00;;
52674;SDS011;38569;52.722;6.440;2022-07-05T15:13:29;1.33;;;0.63;;
52674;SDS011;38569;52.722;6.440;2022-07-05T15:15:56;2.65;;;0.70;;
52674;SDS011;38569;52.722;6.440;2022-07-05T15:18:22;2.22;;;0.80;;
52674;SDS011;38569;52.722;6.440;2022-07-05T15:20:49;2.97;;;0.70;;
52674;SDS011;38569;52.722;6.440;2022-07-05T15:23:16;2.88;;;1.20;;
52674;SDS011;38569;52.722;6.440;2022-07-05T15:25:43;1.60;;;0.90;;
52674;SDS011;38569;52.722;6.440;2022-07-05T15:28:09;1.67;;;0.85;;
52674;SDS011;38569;52.722;6.440;2022-07-05T15:30:39;2.00;;;0.70;;